createdAt,value
2023-04-16T00:01:19.496Z,12.15
2023-04-16T00:03:22.435Z,12.13
2023-04-16T00:05:25.503Z,12.13
2023-04-16T00:07:28.241Z,12.14
2023-04-16T00:09:31.090Z,12.14
2023-04-16T00:11:35.237Z,12.14
2023-04-16T00:13:38.289Z,12.15
2023-04-16T00:15:41.062Z,12.12
2023-04-16T00:17:44.066Z,12.10
2023-04-16T00:19:46.852Z,12.10
2023-04-16T00:21:49.637Z,12.10
2023-04-16T00:23:52.449Z,12.13
2023-04-16T00:25:57.137Z,12.13
2023-04-16T00:28:01.269Z,12.16
2023-04-16T00:30:04.257Z,12.15
2023-04-16T00:32:07.562Z,12.11
2023-04-16T00:34:10.367Z,12.12
2023-04-16T00:36:13.341Z,12.11
2023-04-16T00:38:16.576Z,12.10
2023-04-16T00:40:19.472Z,12.09
2023-04-16T00:42:22.298Z,12.08
2023-04-16T00:44:26.391Z,12.06
2023-04-16T00:46:29.483Z,12.04
2023-04-16T00:48:32.960Z,12.04
2023-04-16T00:50:36.199Z,12.05
2023-04-16T00:52:39.721Z,12.08
2023-04-16T00:54:42.866Z,12.09
2023-04-16T00:56:46.017Z,12.09
2023-04-16T00:58:48.950Z,12.10
2023-04-16T01:00:53.536Z,12.11
2023-04-16T01:02:56.930Z,12.13
2023-04-16T01:05:00.808Z,12.13
2023-04-16T01:07:03.620Z,12.12
2023-04-16T01:09:06.846Z,12.12
2023-04-16T01:11:11.237Z,12.15
2023-04-16T01:13:14.802Z,12.15
2023-04-16T01:15:17.722Z,12.18
2023-04-16T01:17:21.933Z,12.18
2023-04-16T01:19:24.830Z,12.20
2023-04-16T01:21:28.998Z,12.21
2023-04-16T01:23:32.226Z,12.21
2023-04-16T01:25:35.044Z,12.20
2023-04-16T01:27:37.800Z,12.21
2023-04-16T01:29:40.780Z,12.18
2023-04-16T01:31:43.637Z,12.17
2023-04-16T01:33:46.482Z,12.17
2023-04-16T01:35:49.327Z,12.16
2023-04-16T01:37:53.723Z,12.15
2023-04-16T01:39:56.440Z,12.16
2023-04-16T01:41:59.284Z,12.16
2023-04-16T01:44:02.108Z,12.16
2023-04-16T01:46:14.627Z,12.15
2023-04-16T01:48:17.859Z,12.12
2023-04-16T01:50:22.300Z,12.12
2023-04-16T01:52:25.108Z,12.12
2023-04-16T01:54:29.271Z,12.13
2023-04-16T01:56:32.224Z,12.12
2023-04-16T01:58:35.067Z,12.14
2023-04-16T02:00:37.994Z,12.15
2023-04-16T02:02:41.487Z,12.15
2023-04-16T02:04:46.344Z,12.16
2023-04-16T02:06:49.291Z,12.17
2023-04-16T02:08:52.030Z,12.19
2023-04-16T02:10:57.881Z,12.17
2023-04-16T02:13:00.724Z,12.16
2023-04-16T02:15:04.018Z,12.13
2023-04-16T02:17:06.752Z,12.11
2023-04-16T02:19:09.745Z,12.13
2023-04-16T02:21:12.778Z,12.15
2023-04-16T02:23:15.753Z,12.16
2023-04-16T02:25:18.727Z,12.17
2023-04-16T02:27:22.872Z,12.15
2023-04-16T02:29:25.679Z,12.13
2023-04-16T02:31:28.733Z,12.13
2023-04-16T02:33:31.986Z,12.13
2023-04-16T02:35:35.107Z,12.11
2023-04-16T02:37:40.655Z,12.12
2023-04-16T02:39:44.057Z,12.14
2023-04-16T02:41:46.880Z,12.12
2023-04-16T02:43:51.025Z,12.12
2023-04-16T02:45:53.841Z,12.09
2023-04-16T02:47:56.756Z,12.09
2023-04-16T02:49:59.548Z,12.08
2023-04-16T02:52:02.379Z,12.09
2023-04-16T02:54:05.117Z,12.10
2023-04-16T02:56:08.550Z,12.11
2023-04-16T02:58:11.504Z,12.12
2023-04-16T03:00:16.393Z,12.12
2023-04-16T03:02:19.256Z,12.11
2023-04-16T03:04:22.092Z,12.13
2023-04-16T03:06:24.927Z,12.15
2023-04-16T03:08:27.896Z,12.17
2023-04-16T03:10:31.011Z,12.15
2023-04-16T03:12:33.947Z,12.13
2023-04-16T03:14:36.769Z,12.11
2023-04-16T03:16:41.420Z,12.13
2023-04-16T03:18:44.194Z,12.11
2023-04-16T03:20:46.932Z,12.11
2023-04-16T03:22:50.041Z,12.09
2023-04-16T03:24:52.882Z,12.10
2023-04-16T03:26:55.781Z,12.07
2023-04-16T03:28:58.604Z,12.06
2023-04-16T03:31:01.477Z,12.06
2023-04-16T03:33:05.619Z,12.02
2023-04-16T03:35:09.856Z,12.02
2023-04-16T03:37:12.931Z,12.01
2023-04-16T03:39:16.140Z,12.01
2023-04-16T03:41:18.961Z,11.99
2023-04-16T03:43:21.906Z,11.99
2023-04-16T03:45:24.818Z,11.98
2023-04-16T03:47:27.679Z,11.99
2023-04-16T03:49:31.881Z,11.99
2023-04-16T03:51:34.647Z,11.99
2023-04-16T03:53:37.478Z,11.97
2023-04-16T03:55:40.222Z,11.98
2023-04-16T03:57:43.016Z,11.99
2023-04-16T03:59:46.035Z,12.02
2023-04-16T04:01:49.104Z,12.02
2023-04-16T04:03:52.140Z,12.02
2023-04-16T04:05:56.532Z,12.04
2023-04-16T04:07:59.267Z,12.05
2023-04-16T04:10:02.259Z,12.07
2023-04-16T04:12:05.108Z,12.07
2023-04-16T04:14:08.067Z,12.07
2023-04-16T04:16:10.948Z,12.09
2023-04-16T04:18:13.754Z,12.07
2023-04-16T04:20:16.664Z,12.07
2023-04-16T04:22:20.800Z,12.09
2023-04-16T04:24:23.687Z,12.08
2023-04-16T04:26:26.556Z,12.09
2023-04-16T04:28:29.347Z,12.09
2023-04-16T04:30:32.129Z,12.08
2023-04-16T04:32:34.987Z,12.08
2023-04-16T04:34:37.811Z,12.09
2023-04-16T04:36:40.835Z,12.07
2023-04-16T04:38:44.954Z,12.05
2023-04-16T04:40:47.821Z,12.07
2023-04-16T04:42:50.570Z,12.09
2023-04-16T04:44:53.289Z,12.09
2023-04-16T04:46:56.326Z,12.08
2023-04-16T04:48:59.196Z,12.08
2023-04-16T04:51:05.333Z,12.10
2023-04-16T04:53:10.162Z,12.13
2023-04-16T04:55:15.914Z,12.13
2023-04-16T04:57:18.731Z,12.12
2023-04-16T04:59:21.864Z,12.12
2023-04-16T05:01:24.760Z,12.13
2023-04-16T05:03:27.676Z,12.15
2023-04-16T05:05:30.469Z,12.16
2023-04-16T05:07:33.468Z,12.17
2023-04-16T05:09:36.328Z,12.16
2023-04-16T05:11:41.818Z,12.18
2023-04-16T05:13:44.774Z,12.17
2023-04-16T05:15:47.769Z,12.17
2023-04-16T05:17:50.697Z,12.17
2023-04-16T05:19:53.588Z,12.16
2023-04-16T05:21:56.335Z,12.15
2023-04-16T05:23:59.860Z,12.15
2023-04-16T05:26:02.951Z,12.15
2023-04-16T05:28:07.147Z,12.15
2023-04-16T05:30:10.746Z,12.17
2023-04-16T05:32:13.623Z,12.20
2023-04-16T05:34:16.626Z,12.18
2023-04-16T05:36:19.604Z,12.20
2023-04-16T05:38:23.673Z,12.20
2023-04-16T05:40:26.970Z,12.19
2023-04-16T05:42:29.711Z,12.20
2023-04-16T05:44:34.898Z,12.23
2023-04-16T05:46:37.725Z,12.24
2023-04-16T05:48:40.779Z,12.23
2023-04-16T05:50:43.609Z,12.24
2023-04-16T05:52:46.359Z,12.24
2023-04-16T05:54:49.140Z,12.21
2023-04-16T05:56:51.954Z,12.22
2023-04-16T05:58:54.709Z,12.23
2023-04-16T06:00:59.086Z,12.21
2023-04-16T06:03:02.196Z,12.21
2023-04-16T06:05:05.668Z,12.23
2023-04-16T06:07:08.444Z,12.23
2023-04-16T06:09:11.848Z,12.24
2023-04-16T06:11:14.793Z,12.24
2023-04-16T06:13:17.867Z,12.28
2023-04-16T06:15:20.789Z,12.28
2023-04-16T06:17:25.152Z,12.27
2023-04-16T06:19:27.997Z,12.25
2023-04-16T06:21:31.899Z,12.26
2023-04-16T06:23:34.642Z,12.29
2023-04-16T06:25:37.441Z,12.31
2023-04-16T06:27:40.359Z,12.32
2023-04-16T06:29:43.451Z,12.34
2023-04-16T06:31:46.317Z,12.32
2023-04-16T06:33:50.487Z,12.34
2023-04-16T06:35:53.309Z,12.33
2023-04-16T06:37:56.150Z,12.33
2023-04-16T06:39:59.127Z,12.36
2023-04-16T06:42:02.251Z,12.37
2023-04-16T06:44:05.018Z,12.35
2023-04-16T06:46:07.826Z,12.37
2023-04-16T06:48:10.823Z,12.37
2023-04-16T06:50:14.733Z,12.38
2023-04-16T06:52:17.754Z,12.40
2023-04-16T06:54:20.537Z,12.40
2023-04-16T06:56:23.281Z,12.40
2023-04-16T06:58:26.102Z,12.43
2023-04-16T07:00:28.958Z,12.46
2023-04-16T07:02:31.901Z,12.48
2023-04-16T07:04:34.866Z,12.49
2023-04-16T07:06:39.038Z,12.51
2023-04-16T07:08:41.776Z,12.51
2023-04-16T07:10:45.175Z,12.53
2023-04-16T07:12:48.131Z,12.54
2023-04-16T07:14:51.003Z,12.56
2023-04-16T07:16:53.837Z,12.57
2023-04-16T07:18:56.621Z,12.54
2023-04-16T07:20:59.383Z,12.54
2023-04-16T07:23:03.625Z,12.56
2023-04-16T07:25:07.013Z,12.54
2023-04-16T07:27:09.793Z,12.54
2023-04-16T07:29:12.647Z,12.54
2023-04-16T07:31:15.523Z,12.54
2023-04-16T07:33:18.431Z,12.51
2023-04-16T07:35:21.220Z,12.54
2023-04-16T07:37:24.059Z,12.56
2023-04-16T07:39:28.469Z,12.56
2023-04-16T07:41:31.267Z,12.59
2023-04-16T07:43:34.077Z,12.59
2023-04-16T07:45:36.804Z,12.57
2023-04-16T07:47:40.062Z,12.57
2023-04-16T07:49:42.815Z,12.59
2023-04-16T07:51:45.651Z,12.62
2023-04-16T07:53:48.400Z,12.61
2023-04-16T07:55:52.629Z,12.61
2023-04-16T07:57:56.216Z,12.65
2023-04-16T08:00:02.047Z,12.67
2023-04-16T08:02:06.171Z,12.66
2023-04-16T08:04:09.348Z,12.70
2023-04-16T08:06:12.238Z,12.72
2023-04-16T08:08:14.994Z,12.75
2023-04-16T08:10:17.985Z,12.77
2023-04-16T08:12:23.160Z,12.79
2023-04-16T08:14:26.189Z,12.76
2023-04-16T08:16:28.950Z,12.77
2023-04-16T08:18:31.750Z,12.79
2023-04-16T08:20:34.488Z,12.77
2023-04-16T08:22:37.206Z,12.78
2023-04-16T08:24:40.356Z,12.81
2023-04-16T08:26:43.518Z,12.84
2023-04-16T08:28:47.813Z,12.86
2023-04-16T08:30:50.965Z,12.86
2023-04-16T08:32:54.010Z,12.87
2023-04-16T08:34:57.181Z,12.90
2023-04-16T08:37:00.504Z,12.91
2023-04-16T08:39:03.304Z,12.94
2023-04-16T08:41:10.388Z,12.96
2023-04-16T08:43:14.569Z,12.98
2023-04-16T08:45:19.498Z,13.02
2023-04-16T08:47:25.962Z,13.02
2023-04-16T08:49:31.442Z,13.01
2023-04-16T08:51:36.290Z,12.99
2023-04-16T08:53:49.488Z,12.98
2023-04-16T08:55:53.873Z,13.00
2023-04-16T08:57:59.851Z,13.01
2023-04-16T09:00:03.976Z,12.98
2023-04-16T09:02:11.029Z,12.97
2023-04-16T09:04:15.880Z,12.96
2023-04-16T09:06:18.796Z,12.95
2023-04-16T09:08:21.729Z,12.96
2023-04-16T09:10:26.393Z,12.95
2023-04-16T09:12:29.307Z,12.95
2023-04-16T09:14:32.290Z,12.99
2023-04-16T09:16:35.534Z,13.01
2023-04-16T09:18:39.710Z,13.01
2023-04-16T09:20:42.538Z,13.03
2023-04-16T09:22:46.431Z,13.04
2023-04-16T09:24:49.247Z,13.05
2023-04-16T09:26:54.422Z,13.06
2023-04-16T09:28:57.382Z,13.08
2023-04-16T09:31:09.384Z,13.09
2023-04-16T09:33:17.541Z,13.11
2023-04-16T09:35:21.918Z,13.16
2023-04-16T09:37:25.483Z,13.17
2023-04-16T09:39:28.999Z,13.19
2023-04-16T09:41:33.210Z,13.24
2023-04-16T09:43:36.427Z,13.29
2023-04-16T09:45:51.040Z,13.33
2023-04-16T09:47:53.934Z,13.34
2023-04-16T09:50:00.262Z,13.35
2023-04-16T09:52:04.410Z,13.35
2023-04-16T09:54:07.424Z,13.35
2023-04-16T09:56:11.453Z,13.34
2023-04-16T09:58:20.080Z,13.35
2023-04-16T10:00:24.583Z,13.36
2023-04-16T10:02:28.151Z,13.38
2023-04-16T10:04:31.070Z,13.39
2023-04-16T10:06:33.842Z,13.42
2023-04-16T10:08:37.948Z,13.45
2023-04-16T10:10:41.450Z,13.45
2023-04-16T10:12:44.605Z,13.44
2023-04-16T10:14:49.524Z,13.43
2023-04-16T10:16:53.360Z,13.43
2023-04-16T10:18:58.044Z,13.45
2023-04-16T10:21:01.165Z,13.45
2023-04-16T10:23:04.541Z,13.45
2023-04-16T10:25:09.987Z,13.45
2023-04-16T10:27:12.770Z,13.45
2023-04-16T10:29:15.656Z,13.47
2023-04-16T10:31:18.735Z,13.47
2023-04-16T10:33:23.226Z,13.44
2023-04-16T10:35:26.925Z,13.42
2023-04-16T10:37:33.905Z,13.42
2023-04-16T10:39:38.120Z,13.40
2023-04-16T10:41:44.014Z,13.38
2023-04-16T10:43:48.404Z,13.40
2023-04-16T10:45:51.145Z,13.39
2023-04-16T10:47:57.569Z,13.39
2023-04-16T10:50:00.354Z,13.42
2023-04-16T10:52:10.756Z,13.43
2023-04-16T10:54:27.014Z,13.44
2023-04-16T10:56:32.838Z,13.44
2023-04-16T10:58:37.582Z,13.46
2023-04-16T11:00:50.507Z,13.49
2023-04-16T11:02:54.998Z,13.50
2023-04-16T11:04:58.549Z,13.51
2023-04-16T11:07:03.235Z,13.51
2023-04-16T11:09:06.030Z,13.55
2023-04-16T11:11:09.457Z,13.54
2023-04-16T11:13:14.246Z,13.55
2023-04-16T11:15:19.558Z,13.54
2023-04-16T11:17:23.263Z,13.52
2023-04-16T11:19:26.252Z,13.51
2023-04-16T11:21:29.292Z,13.51
2023-04-16T11:23:46.874Z,13.52
2023-04-16T11:25:51.900Z,13.51
2023-04-16T11:27:55.123Z,13.50
2023-04-16T11:29:59.080Z,13.50
2023-04-16T11:32:03.340Z,13.50
2023-04-16T11:34:08.781Z,13.50
2023-04-16T11:36:11.540Z,13.56
2023-04-16T11:38:14.476Z,13.56
2023-04-16T11:40:17.376Z,13.59
2023-04-16T11:42:22.553Z,13.62
2023-04-16T11:44:27.430Z,13.64
2023-04-16T11:46:40.607Z,13.63
2023-04-16T11:48:53.066Z,13.65
2023-04-16T11:50:59.500Z,13.69
2023-04-16T11:53:05.798Z,13.75
2023-04-16T11:55:09.228Z,13.78
2023-04-16T11:57:12.630Z,13.79
2023-04-16T11:59:17.364Z,13.84
2023-04-16T12:01:21.968Z,13.90
2023-04-16T12:03:39.569Z,13.94
2023-04-16T12:05:44.267Z,13.98
2023-04-16T12:07:47.039Z,14.03
2023-04-16T12:09:49.855Z,14.05
2023-04-16T12:11:52.676Z,14.04
2023-04-16T12:14:11.869Z,14.01
2023-04-16T12:16:21.222Z,14.01
2023-04-16T12:18:27.008Z,13.99
2023-04-16T12:20:40.746Z,13.98
2023-04-16T12:22:48.356Z,13.98
2023-04-16T12:24:51.101Z,14.01
2023-04-16T12:26:57.356Z,14.03
2023-04-16T12:29:16.448Z,14.06
2023-04-16T12:31:20.314Z,14.08
2023-04-16T12:33:23.253Z,14.07
2023-04-16T12:35:32.747Z,14.02
2023-04-16T12:37:35.883Z,13.95
2023-04-16T12:39:39.990Z,13.88
2023-04-16T12:41:44.911Z,13.85
2023-04-16T12:43:47.752Z,13.86
2023-04-16T12:45:50.587Z,13.86
2023-04-16T12:47:53.451Z,13.85
2023-04-16T12:49:57.369Z,13.84
2023-04-16T12:52:00.213Z,13.83
2023-04-16T12:54:03.941Z,13.83
2023-04-16T12:56:08.133Z,13.81
2023-04-16T12:58:12.594Z,13.76
2023-04-16T13:00:17.356Z,13.79
2023-04-16T13:02:20.350Z,13.78
2023-04-16T13:04:25.945Z,13.77
2023-04-16T13:06:29.210Z,13.77
2023-04-16T13:08:32.374Z,13.75
2023-04-16T13:10:36.089Z,13.76
2023-04-16T13:12:40.370Z,13.78
2023-04-16T13:14:45.015Z,13.77
2023-04-16T13:16:48.072Z,13.77
2023-04-16T13:18:51.211Z,13.75
2023-04-16T13:20:54.563Z,13.75
2023-04-16T13:22:57.452Z,13.75
2023-04-16T13:25:00.328Z,13.74
2023-04-16T13:27:03.121Z,13.74
2023-04-16T13:29:07.468Z,13.72
2023-04-16T13:31:10.631Z,13.72
2023-04-16T13:33:13.691Z,13.72
2023-04-16T13:35:16.575Z,13.74
2023-04-16T13:37:21.296Z,13.72
2023-04-16T13:39:24.210Z,13.70
2023-04-16T13:41:27.068Z,13.70
2023-04-16T13:43:30.033Z,13.67
2023-04-16T13:45:34.315Z,13.66
2023-04-16T13:47:37.440Z,13.65
2023-04-16T13:49:40.325Z,13.64
2023-04-16T13:51:44.771Z,13.63
2023-04-16T13:53:47.648Z,13.63
2023-04-16T13:55:50.894Z,13.63
2023-04-16T13:57:53.798Z,13.62
2023-04-16T13:59:57.104Z,13.61
2023-04-16T14:02:01.354Z,13.62
2023-04-16T14:04:06.474Z,13.63
2023-04-16T14:06:09.819Z,13.63
2023-04-16T14:08:14.730Z,13.62
2023-04-16T14:10:17.820Z,13.60
2023-04-16T14:12:20.973Z,13.57
2023-04-16T14:14:24.369Z,13.57
2023-04-16T14:16:27.473Z,13.57
2023-04-16T14:18:31.770Z,13.57
2023-04-16T14:20:34.989Z,13.55
2023-04-16T14:22:37.974Z,13.55
2023-04-16T14:24:40.751Z,13.55
2023-04-16T14:26:44.296Z,13.57
2023-04-16T14:28:47.136Z,13.58
2023-04-16T14:30:50.000Z,13.61
2023-04-16T14:32:52.978Z,13.63
2023-04-16T14:34:57.624Z,13.65
2023-04-16T14:37:00.756Z,13.66
2023-04-16T14:39:03.697Z,13.66
2023-04-16T14:41:06.746Z,13.67
2023-04-16T14:43:09.646Z,13.69
2023-04-16T14:45:13.570Z,13.70
2023-04-16T14:47:16.428Z,13.66
2023-04-16T14:49:19.324Z,13.63
2023-04-16T14:51:23.751Z,13.62
2023-04-16T14:53:27.051Z,13.64
2023-04-16T14:55:29.919Z,13.64
2023-04-16T14:57:33.468Z,13.64
2023-04-16T14:59:36.940Z,13.69
2023-04-16T15:01:41.186Z,13.75
2023-04-16T15:03:44.507Z,13.78
2023-04-16T15:05:50.799Z,13.80
2023-04-16T15:07:55.046Z,13.82
2023-04-16T15:09:58.057Z,13.81
2023-04-16T15:12:00.934Z,13.83
2023-04-16T15:14:03.677Z,13.81
2023-04-16T15:16:06.737Z,13.87
2023-04-16T15:18:09.716Z,13.88
2023-04-16T15:20:13.895Z,13.89
2023-04-16T15:22:16.808Z,13.92
2023-04-16T15:24:21.112Z,13.95
2023-04-16T15:26:24.115Z,13.99
2023-04-16T15:28:27.122Z,14.01
2023-04-16T15:30:30.038Z,13.93
2023-04-16T15:32:32.865Z,13.89
2023-04-16T15:34:36.145Z,13.90
2023-04-16T15:36:39.038Z,13.93
2023-04-16T15:38:41.806Z,13.92
2023-04-16T15:40:46.225Z,13.89
2023-04-16T15:42:49.236Z,13.86
2023-04-16T15:44:51.992Z,13.82
2023-04-16T15:46:54.928Z,13.79
2023-04-16T15:48:57.810Z,13.79
2023-04-16T15:51:00.548Z,13.81
2023-04-16T15:53:04.024Z,13.83
2023-04-16T15:55:07.333Z,13.85
2023-04-16T15:57:11.479Z,13.80
2023-04-16T15:59:14.609Z,13.76
2023-04-16T16:01:17.889Z,13.72
2023-04-16T16:03:21.486Z,13.71
2023-04-16T16:05:24.870Z,13.68
2023-04-16T16:07:27.780Z,13.66
2023-04-16T16:09:30.921Z,13.65
2023-04-16T16:11:34.641Z,13.65
2023-04-16T16:13:39.005Z,13.68
2023-04-16T16:15:42.158Z,13.73
2023-04-16T16:17:45.015Z,13.75
2023-04-16T16:19:47.734Z,13.76
2023-04-16T16:21:50.462Z,13.73
2023-04-16T16:23:53.310Z,13.66
2023-04-16T16:25:56.769Z,13.63
2023-04-16T16:27:59.842Z,13.65
2023-04-16T16:30:06.639Z,13.67
2023-04-16T16:32:09.495Z,13.68
2023-04-16T16:34:20.098Z,13.66
2023-04-16T16:36:23.968Z,13.62
2023-04-16T16:38:27.116Z,13.62
2023-04-16T16:40:30.484Z,13.60
2023-04-16T16:42:33.331Z,13.57
2023-04-16T16:44:36.199Z,13.57
2023-04-16T16:46:40.447Z,13.51
2023-04-16T16:48:43.330Z,13.50
2023-04-16T16:50:46.217Z,13.50
2023-04-16T16:52:48.952Z,13.48
2023-04-16T16:54:51.802Z,13.43
2023-04-16T16:56:54.626Z,13.39
2023-04-16T16:58:57.570Z,13.38
2023-04-16T17:01:00.496Z,13.31
2023-04-16T17:03:04.884Z,13.23
2023-04-16T17:05:08.568Z,13.15
2023-04-16T17:07:11.611Z,13.10
2023-04-16T17:09:14.535Z,12.99
2023-04-16T17:11:18.040Z,12.89
2023-04-16T17:13:21.005Z,12.83
2023-04-16T17:15:23.928Z,12.78
2023-04-16T17:17:27.878Z,12.77
2023-04-16T17:19:32.018Z,12.83
2023-04-16T17:21:34.820Z,12.92
2023-04-16T17:23:39.335Z,12.95
2023-04-16T17:25:43.990Z,12.95
2023-04-16T17:27:46.895Z,12.97
2023-04-16T17:29:49.631Z,12.96
2023-04-16T17:31:52.651Z,12.97
2023-04-16T17:33:55.581Z,13.01
2023-04-16T17:35:59.682Z,13.06
2023-04-16T17:38:03.151Z,13.05
2023-04-16T17:40:07.819Z,13.06
2023-04-16T17:42:10.517Z,13.10
2023-04-16T17:44:13.548Z,13.13
2023-04-16T17:46:16.722Z,13.16
2023-04-16T17:48:19.494Z,13.18
2023-04-16T17:50:22.557Z,13.20
2023-04-16T17:52:27.217Z,13.22
2023-04-16T17:54:29.977Z,13.23
2023-04-16T17:56:33.161Z,13.25
2023-04-16T17:58:35.916Z,13.26
2023-04-16T18:00:38.864Z,13.28
2023-04-16T18:02:42.022Z,13.29
2023-04-16T18:04:45.155Z,13.27
2023-04-16T18:06:48.290Z,13.23
2023-04-16T18:08:52.595Z,13.24
2023-04-16T18:10:56.649Z,13.24
2023-04-16T18:12:59.428Z,13.26
2023-04-16T18:15:02.257Z,13.25
2023-04-16T18:17:06.699Z,13.25
2023-04-16T18:19:09.737Z,13.23
2023-04-16T18:21:13.161Z,13.23
2023-04-16T18:23:16.055Z,13.25
2023-04-16T18:25:31.734Z,13.25
2023-04-16T18:27:36.974Z,13.25
2023-04-16T18:29:40.290Z,13.23
2023-04-16T18:31:44.136Z,13.18
2023-04-16T18:33:56.494Z,13.18
2023-04-16T18:36:02.136Z,13.15
2023-04-16T18:38:04.947Z,13.16
2023-04-16T18:40:10.676Z,13.18
2023-04-16T18:42:14.740Z,13.20
2023-04-16T18:44:19.552Z,13.19
2023-04-16T18:46:22.421Z,13.16
2023-04-16T18:48:25.421Z,13.15
2023-04-16T18:50:28.295Z,13.12
2023-04-16T18:52:31.253Z,13.13
2023-04-16T18:54:34.040Z,13.12
2023-04-16T18:56:36.930Z,13.12
2023-04-16T18:58:41.261Z,13.09
2023-04-16T19:00:44.263Z,13.09
2023-04-16T19:02:47.233Z,13.09
2023-04-16T19:04:50.340Z,13.11
2023-04-16T19:06:53.081Z,13.11
2023-04-16T19:08:55.863Z,13.09
2023-04-16T19:10:58.722Z,13.09
2023-04-16T19:13:01.544Z,13.07
2023-04-16T19:15:06.321Z,13.09
2023-04-16T19:17:09.061Z,13.10
2023-04-16T19:19:12.198Z,13.09
2023-04-16T19:21:15.172Z,13.10
2023-04-16T19:23:18.028Z,13.10
2023-04-16T19:25:21.214Z,13.09
2023-04-16T19:27:25.616Z,13.10
2023-04-16T19:29:28.978Z,13.12
2023-04-16T19:31:33.222Z,13.10
2023-04-16T19:33:36.172Z,13.10
2023-04-16T19:35:39.050Z,13.10
2023-04-16T19:37:43.717Z,13.03
2023-04-16T19:39:46.661Z,13.02
2023-04-16T19:41:49.656Z,13.06
2023-04-16T19:43:52.742Z,13.09
2023-04-16T19:45:55.616Z,13.08
2023-04-16T19:48:00.068Z,13.07
2023-04-16T19:50:03.038Z,13.04
2023-04-16T19:52:06.014Z,12.99
2023-04-16T19:54:09.022Z,12.99
2023-04-16T19:56:12.268Z,12.97
2023-04-16T19:58:15.153Z,12.95
2023-04-16T20:00:18.775Z,12.96
2023-04-16T20:02:21.738Z,12.95
2023-04-16T20:04:26.140Z,12.96
2023-04-16T20:06:28.938Z,12.95
2023-04-16T20:08:31.646Z,12.97
2023-04-16T20:10:34.345Z,12.98
2023-04-16T20:12:46.566Z,12.97
2023-04-16T20:14:49.448Z,12.98
2023-04-16T20:16:52.743Z,12.99
2023-04-16T20:19:03.516Z,12.97
2023-04-16T20:21:09.810Z,12.97
2023-04-16T20:23:12.817Z,12.96
2023-04-16T20:25:18.956Z,12.96
2023-04-16T20:27:22.939Z,12.96
2023-04-16T20:29:26.691Z,12.95
2023-04-16T20:31:29.703Z,12.97
2023-04-16T20:33:32.444Z,12.98
2023-04-16T20:35:35.614Z,12.97
2023-04-16T20:37:42.931Z,12.97
2023-04-16T20:39:46.755Z,12.97
2023-04-16T20:41:56.998Z,12.95
2023-04-16T20:44:05.132Z,12.97
2023-04-16T20:46:08.395Z,12.97
2023-04-16T20:48:11.829Z,12.97
2023-04-16T20:50:15.004Z,12.96
2023-04-16T20:52:17.990Z,12.96
2023-04-16T20:54:22.127Z,12.93
2023-04-16T20:56:24.945Z,12.92
2023-04-16T20:58:28.200Z,12.92
2023-04-16T21:00:31.042Z,12.92
2023-04-16T21:02:34.638Z,12.90
2023-04-16T21:04:37.955Z,12.87
2023-04-16T21:06:42.947Z,12.85
2023-04-16T21:08:45.901Z,12.81
2023-04-16T21:10:50.556Z,12.81
2023-04-16T21:12:53.256Z,12.81
2023-04-16T21:14:57.430Z,12.82
2023-04-16T21:17:00.596Z,12.80
2023-04-16T21:19:03.440Z,12.84
2023-04-16T21:21:06.686Z,12.85
2023-04-16T21:23:09.413Z,12.87
2023-04-16T21:25:12.262Z,12.85
2023-04-16T21:27:16.681Z,12.85
2023-04-16T21:29:19.742Z,12.86
2023-04-16T21:31:22.726Z,12.84
2023-04-16T21:33:25.790Z,12.87
2023-04-16T21:35:28.586Z,12.86
2023-04-16T21:37:31.393Z,12.85
2023-04-16T21:39:34.227Z,12.83
2023-04-16T21:41:36.937Z,12.84
2023-04-16T21:43:41.039Z,12.85
2023-04-16T21:45:44.175Z,12.76
2023-04-16T21:47:47.118Z,12.77
2023-04-16T21:49:50.110Z,12.74
2023-04-16T21:51:59.331Z,12.73
2023-04-16T21:54:03.658Z,12.73
2023-04-16T21:56:07.376Z,12.74
2023-04-16T21:58:10.241Z,12.74
2023-04-16T22:00:15.528Z,12.73
2023-04-16T22:02:18.479Z,12.74
2023-04-16T22:04:26.334Z,12.67
2023-04-16T22:06:29.186Z,12.67
2023-04-16T22:08:32.381Z,12.68
2023-04-16T22:10:35.364Z,12.70
2023-04-16T22:12:39.510Z,12.70
2023-04-16T22:14:52.154Z,12.68
2023-04-16T22:17:04.366Z,12.70
2023-04-16T22:19:07.309Z,12.69
2023-04-16T22:21:10.376Z,12.66
2023-04-16T22:23:13.364Z,12.63
2023-04-16T22:25:16.364Z,12.61
2023-04-16T22:27:19.324Z,12.59
2023-04-16T22:29:22.075Z,12.59
2023-04-16T22:31:24.801Z,12.60
2023-04-16T22:33:31.370Z,12.62
2023-04-16T22:35:34.320Z,12.64
2023-04-16T22:37:37.478Z,12.66
2023-04-16T22:39:40.262Z,12.63
2023-04-16T22:41:43.009Z,12.61
2023-04-16T22:43:45.741Z,12.61
2023-04-16T22:45:48.622Z,12.61
2023-04-16T22:47:51.691Z,12.61
2023-04-16T22:49:55.957Z,12.59
2023-04-16T22:51:58.813Z,12.55
2023-04-16T22:54:01.605Z,12.54
2023-04-16T22:56:04.436Z,12.54
2023-04-16T22:58:07.178Z,12.58
2023-04-16T23:00:15.529Z,12.54
2023-04-16T23:02:18.775Z,12.53
2023-04-16T23:04:21.582Z,12.57
2023-04-16T23:06:27.139Z,12.60
2023-04-16T23:08:29.935Z,12.59
2023-04-16T23:10:32.666Z,12.53
2023-04-16T23:12:37.209Z,12.50
2023-04-16T23:14:46.063Z,12.45
2023-04-16T23:16:48.916Z,12.45
2023-04-16T23:18:51.790Z,12.44
2023-04-16T23:20:54.900Z,12.45
2023-04-16T23:22:59.034Z,12.41
2023-04-16T23:25:01.954Z,12.40
2023-04-16T23:27:05.093Z,12.44
2023-04-16T23:29:07.895Z,12.48
2023-04-16T23:31:10.721Z,12.50
2023-04-16T23:33:13.519Z,12.47
2023-04-16T23:35:20.373Z,12.47
2023-04-16T23:37:23.187Z,12.49
2023-04-16T23:39:27.427Z,12.47
2023-04-16T23:41:30.137Z,12.46
2023-04-16T23:43:32.939Z,12.43
2023-04-16T23:45:35.774Z,12.39
2023-04-16T23:47:38.680Z,12.37
2023-04-16T23:49:41.665Z,12.34
2023-04-16T23:51:44.441Z,12.36
2023-04-16T23:53:47.183Z,12.35
2023-04-16T23:55:51.548Z,12.34
2023-04-16T23:57:54.347Z,12.33
2023-04-16T23:59:57.088Z,12.38
